createdAt,value
2018-08-30T00:00:58.334Z,12.80
2018-08-30T00:03:26.843Z,16.00
2018-08-30T00:05:55.385Z,19.50
2018-08-30T00:08:24.093Z,14.23
2018-08-30T00:10:52.667Z,14.27
2018-08-30T00:13:21.196Z,13.93
2018-08-30T00:15:49.874Z,15.10
2018-08-30T00:18:18.392Z,14.90
2018-08-30T00:20:47.053Z,14.10
2018-08-30T00:23:15.656Z,16.60
2018-08-30T00:25:44.268Z,17.23
2018-08-30T00:28:13.284Z,14.67
2018-08-30T00:30:41.826Z,16.77
2018-08-30T00:33:10.304Z,15.90
2018-08-30T00:35:38.959Z,15.80
2018-08-30T00:38:08.614Z,14.23
2018-08-30T00:40:37.186Z,16.57
2018-08-30T00:43:05.720Z,19.57
2018-08-30T00:45:34.236Z,17.43
2018-08-30T00:48:02.764Z,14.67
2018-08-30T00:50:31.236Z,14.90
2018-08-30T00:52:59.734Z,13.43
2018-08-30T00:55:28.184Z,14.63
2018-08-30T00:57:56.732Z,17.73
2018-08-30T01:00:25.261Z,23.03
2018-08-30T01:02:54.227Z,15.73
2018-08-30T01:05:22.777Z,13.60
2018-08-30T01:07:51.234Z,12.70
2018-08-30T01:10:19.728Z,15.30
2018-08-30T01:12:53.228Z,15.30
2018-08-30T01:15:22.766Z,14.23
2018-08-30T01:17:51.267Z,15.57
2018-08-30T01:20:20.128Z,15.90
2018-08-30T01:22:48.761Z,16.30
2018-08-30T01:25:17.234Z,14.67
2018-08-30T01:27:45.842Z,16.37
2018-08-30T01:30:14.339Z,15.90
2018-08-30T01:32:42.830Z,17.10
2018-08-30T01:35:11.300Z,15.23
2018-08-30T01:37:39.896Z,16.53
2018-08-30T01:40:08.404Z,16.50
2018-08-30T01:42:37.001Z,14.90
2018-08-30T01:45:05.604Z,15.23
2018-08-30T01:47:34.182Z,17.23
2018-08-30T01:50:02.636Z,13.00
2018-08-30T01:52:31.284Z,15.23
2018-08-30T01:54:59.762Z,15.27
2018-08-30T01:57:28.248Z,14.70
2018-08-30T01:59:56.728Z,17.67
2018-08-30T02:02:25.258Z,12.83
2018-08-30T02:04:53.828Z,16.50
2018-08-30T02:07:22.283Z,16.33
2018-08-30T02:09:52.880Z,15.67
2018-08-30T02:12:21.369Z,15.53
2018-08-30T02:14:49.827Z,14.80
2018-08-30T02:17:18.379Z,13.50
2018-08-30T02:19:46.832Z,15.80
2018-08-30T02:22:15.303Z,14.63
2018-08-30T02:24:43.799Z,19.77
2018-08-30T02:27:12.293Z,16.30
2018-08-30T02:29:40.766Z,18.57
2018-08-30T02:32:09.244Z,14.43
2018-08-30T02:34:37.740Z,17.27
2018-08-30T02:37:06.275Z,12.40
2018-08-30T02:39:34.761Z,17.23
2018-08-30T02:42:03.305Z,14.80
2018-08-30T02:44:31.856Z,15.57
2018-08-30T02:47:00.460Z,18.60
2018-08-30T02:49:28.955Z,15.80
2018-08-30T02:51:57.446Z,23.23
2018-08-30T02:54:25.988Z,16.20
2018-08-30T02:56:54.588Z,14.47
2018-08-30T02:59:23.013Z,14.13
2018-08-30T03:01:51.521Z,15.13
2018-08-30T03:04:19.984Z,14.07
2018-08-30T03:06:48.913Z,13.77
2018-08-30T03:09:17.365Z,13.10
2018-08-30T03:11:46.891Z,15.30
2018-08-30T03:14:15.391Z,13.50
2018-08-30T03:16:43.904Z,15.03
2018-08-30T03:19:12.449Z,12.43
2018-08-30T03:21:40.949Z,14.93
2018-08-30T03:24:09.465Z,14.57
2018-08-30T03:26:37.969Z,13.00
2018-08-30T03:29:06.469Z,14.73
2018-08-30T03:31:34.935Z,17.60
2018-08-30T03:34:03.460Z,14.93
2018-08-30T03:36:31.929Z,16.80
2018-08-30T03:39:00.465Z,15.27
2018-08-30T03:41:29.016Z,13.73
2018-08-30T03:43:57.658Z,13.23
2018-08-30T03:46:26.148Z,14.83
2018-08-30T03:48:54.656Z,16.30
2018-08-30T03:51:23.277Z,17.20
2018-08-30T03:53:51.740Z,14.03
2018-08-30T03:56:20.260Z,14.17
2018-08-30T03:58:49.717Z,13.50
2018-08-30T04:01:18.252Z,12.47
2018-08-30T04:03:46.726Z,12.70
2018-08-30T04:06:15.216Z,13.83
2018-08-30T04:08:43.708Z,14.53
2018-08-30T04:11:12.225Z,12.13
2018-08-30T04:13:40.747Z,13.43
2018-08-30T04:16:10.026Z,14.13
2018-08-30T04:18:38.526Z,15.03
2018-08-30T04:21:07.113Z,19.33
2018-08-30T04:23:35.849Z,17.73
2018-08-30T04:26:04.355Z,14.27
2018-08-30T04:28:32.866Z,17.03
2018-08-30T04:31:01.379Z,18.70
2018-08-30T04:33:30.813Z,14.60
2018-08-30T04:35:59.305Z,13.87
2018-08-30T04:38:27.875Z,13.47
2018-08-30T04:40:56.455Z,14.00
2018-08-30T04:43:25.187Z,12.90
2018-08-30T04:45:53.740Z,13.23
2018-08-30T04:48:22.213Z,12.00
2018-08-30T04:50:50.650Z,17.83
2018-08-30T04:53:19.169Z,12.50
2018-08-30T04:55:47.667Z,22.60
2018-08-30T04:58:16.614Z,14.17
2018-08-30T05:00:45.169Z,15.10
2018-08-30T05:03:13.827Z,18.60
2018-08-30T05:05:42.355Z,14.00
2018-08-30T05:08:10.901Z,14.17
2018-08-30T05:10:40.376Z,11.30
2018-08-30T05:13:18.852Z,14.43
2018-08-30T05:15:52.139Z,12.00
2018-08-30T05:18:23.436Z,15.63
2018-08-30T05:20:54.850Z,17.40
2018-08-30T05:23:31.269Z,16.03
2018-08-30T05:26:12.696Z,14.50
2018-08-30T05:28:48.637Z,15.37
2018-08-30T05:31:21.655Z,15.90
2018-08-30T05:34:05.515Z,14.10
2018-08-30T05:36:40.790Z,38.83
2018-08-30T05:39:09.923Z,11.60
2018-08-30T05:41:38.509Z,21.90
2018-08-30T05:44:07.048Z,15.60
2018-08-30T05:46:35.678Z,16.67
2018-08-30T05:49:04.161Z,18.90
2018-08-30T05:51:32.660Z,15.87
2018-08-30T05:54:01.186Z,15.83
2018-08-30T05:56:29.755Z,15.13
2018-08-30T05:58:58.293Z,13.50
2018-08-30T06:01:26.886Z,13.20
2018-08-30T06:03:55.430Z,16.37
2018-08-30T06:06:24.038Z,16.03
2018-08-30T06:08:52.553Z,16.80
2018-08-30T06:11:21.191Z,13.93
2018-08-30T06:13:49.754Z,16.87
2018-08-30T06:16:18.631Z,14.73
2018-08-30T06:18:47.240Z,20.23
2018-08-30T06:21:16.009Z,17.07
2018-08-30T06:23:44.975Z,16.30
2018-08-30T06:26:13.764Z,20.00
2018-08-30T06:28:45.543Z,15.07
2018-08-30T06:31:14.517Z,20.90
2018-08-30T06:33:43.045Z,17.20
2018-08-30T06:36:11.879Z,15.10
2018-08-30T06:38:41.924Z,17.07
2018-08-30T06:41:10.541Z,15.63
2018-08-30T06:43:39.114Z,18.93
2018-08-30T06:46:07.651Z,14.87
2018-08-30T06:48:36.419Z,20.87
2018-08-30T06:51:05.336Z,15.23
2018-08-30T06:53:34.068Z,15.63
2018-08-30T06:56:02.814Z,14.73
2018-08-30T06:58:31.503Z,17.47
2018-08-30T07:01:00.024Z,15.67
2018-08-30T07:03:28.574Z,16.33
2018-08-30T07:05:57.040Z,22.87
2018-08-30T07:08:27.352Z,16.10
2018-08-30T07:10:56.522Z,16.83
2018-08-30T07:13:25.345Z,20.53
2018-08-30T07:15:53.937Z,21.60
2018-08-30T07:18:22.752Z,18.23
2018-08-30T07:20:51.789Z,22.90
2018-08-30T07:23:20.773Z,17.90
2018-08-30T07:25:49.624Z,22.47
2018-08-30T07:28:18.133Z,18.20
2018-08-30T07:30:46.741Z,16.40
2018-08-30T07:33:15.233Z,19.53
2018-08-30T07:35:43.813Z,17.50
2018-08-30T07:38:12.336Z,22.43
2018-08-30T07:40:40.929Z,19.30
2018-08-30T07:43:09.400Z,21.53
2018-08-30T07:45:37.990Z,18.80
2018-08-30T07:48:06.582Z,18.23
2018-08-30T07:50:35.056Z,17.50
2018-08-30T07:53:03.569Z,18.73
2018-08-30T07:55:32.033Z,23.50
2018-08-30T07:58:00.525Z,23.40
2018-08-30T08:00:29.073Z,20.07
2018-08-30T08:02:57.598Z,14.03
2018-08-30T08:05:26.142Z,16.07
2018-08-30T08:07:54.686Z,19.63
2018-08-30T08:10:23.233Z,16.40
2018-08-30T08:12:51.847Z,23.70
2018-08-30T08:15:20.380Z,17.73
2018-08-30T08:17:48.897Z,20.07
2018-08-30T08:20:17.489Z,23.70
2018-08-30T08:22:46.021Z,22.53
2018-08-30T08:25:14.645Z,22.70
2018-08-30T08:27:43.143Z,20.40
2018-08-30T08:30:11.679Z,44.83
2018-08-30T08:32:40.227Z,59.17
2018-08-30T08:35:09.301Z,65.57
2018-08-30T08:37:37.966Z,48.30
2018-08-30T08:40:06.551Z,54.43
2018-08-30T08:42:35.012Z,45.73
2018-08-30T08:45:03.661Z,52.37
2018-08-30T08:47:32.329Z,55.00
2018-08-30T08:50:03.061Z,60.40
2018-08-30T08:52:31.644Z,48.03
2018-08-30T08:55:01.081Z,59.83
2018-08-30T08:57:29.685Z,54.00
2018-08-30T08:59:58.427Z,57.30
2018-08-30T09:02:26.967Z,57.20
2018-08-30T09:04:55.467Z,51.70
2018-08-30T09:07:24.032Z,50.50
2018-08-30T09:09:52.468Z,59.20
2018-08-30T09:12:20.980Z,50.53
2018-08-30T09:14:49.505Z,60.20
2018-08-30T09:17:18.072Z,61.80
2018-08-30T09:19:47.000Z,51.47
2018-08-30T09:22:15.528Z,67.37
2018-08-30T09:24:44.074Z,56.87
2018-08-30T09:27:12.750Z,58.10
2018-08-30T09:29:41.324Z,59.20
2018-08-30T09:32:10.053Z,56.80
2018-08-30T09:34:38.675Z,49.93
2018-08-30T09:37:07.240Z,48.40
2018-08-30T09:39:35.724Z,54.37
2018-08-30T09:42:04.406Z,41.10
2018-08-30T09:44:32.917Z,49.17
2018-08-30T09:47:01.528Z,51.50
2018-08-30T09:49:30.118Z,53.57
2018-08-30T09:51:58.701Z,53.57
2018-08-30T09:54:27.244Z,46.53
2018-08-30T09:56:56.013Z,51.30
2018-08-30T09:59:24.460Z,68.70
2018-08-30T10:01:58.451Z,51.80
2018-08-30T10:04:26.921Z,57.90
2018-08-30T10:06:55.484Z,56.63
2018-08-30T10:09:24.048Z,57.13
2018-08-30T10:11:52.660Z,55.43
2018-08-30T10:14:21.243Z,56.47
2018-08-30T10:16:49.865Z,65.50
2018-08-30T10:19:18.433Z,60.80
2018-08-30T10:21:46.982Z,73.37
2018-08-30T10:24:15.641Z,58.47
2018-08-30T10:26:44.183Z,74.63
2018-08-30T10:29:12.758Z,70.40
2018-08-30T10:31:42.165Z,70.53
2018-08-30T10:34:11.194Z,76.37
2018-08-30T10:36:39.879Z,80.10
2018-08-30T10:39:08.972Z,71.50
2018-08-30T10:41:37.578Z,83.67
2018-08-30T10:44:06.291Z,82.63
2018-08-30T10:46:34.897Z,79.83
2018-08-30T10:49:03.424Z,68.37
2018-08-30T10:51:32.027Z,74.23
2018-08-30T10:54:00.520Z,77.83
2018-08-30T10:56:29.364Z,71.60
2018-08-30T10:58:57.956Z,71.93
2018-08-30T11:01:26.544Z,74.70
2018-08-30T11:03:55.233Z,60.50
2018-08-30T11:06:23.898Z,63.57
2018-08-30T11:08:52.407Z,62.83
2018-08-30T11:11:21.511Z,67.77
2018-08-30T11:13:50.357Z,59.30
2018-08-30T11:16:19.258Z,57.87
2018-08-30T11:18:48.134Z,54.87
2018-08-30T11:21:16.711Z,62.73
2018-08-30T11:23:45.237Z,58.17
2018-08-30T11:26:13.779Z,58.67
2018-08-30T11:28:42.363Z,57.13
2018-08-30T11:31:11.533Z,58.48
2018-08-30T11:33:40.052Z,52.03
2018-08-30T11:36:08.625Z,56.97
2018-08-30T11:38:37.445Z,55.03
2018-08-30T11:41:06.193Z,59.57
2018-08-30T11:43:35.048Z,62.10
2018-08-30T11:46:04.430Z,57.37
2018-08-30T11:48:34.234Z,64.70
2018-08-30T11:51:02.922Z,52.83
2018-08-30T11:53:31.583Z,53.37
2018-08-30T11:56:00.286Z,56.47
2018-08-30T11:58:28.969Z,57.33
2018-08-30T12:00:57.566Z,65.87
2018-08-30T12:03:26.370Z,58.57
2018-08-30T12:05:54.963Z,62.17
2018-08-30T12:08:23.519Z,72.83
2018-08-30T12:10:52.090Z,56.00
2018-08-30T12:13:20.552Z,57.30
2018-08-30T12:15:49.072Z,56.33
2018-08-30T12:18:17.741Z,63.93
2018-08-30T12:20:46.320Z,52.57
2018-08-30T12:23:14.805Z,50.90
2018-08-30T12:25:43.320Z,33.40
2018-08-30T12:28:12.020Z,40.60
2018-08-30T12:30:40.712Z,23.70
2018-08-30T12:33:09.185Z,17.13
2018-08-30T12:35:37.770Z,14.20
2018-08-30T12:38:06.349Z,14.37
2018-08-30T12:40:35.044Z,11.73
2018-08-30T12:43:04.408Z,11.27
2018-08-30T12:45:33.821Z,10.47
2018-08-30T12:48:03.034Z,11.23
2018-08-30T12:50:32.018Z,12.00
2018-08-30T12:53:00.518Z,10.23
2018-08-30T12:55:29.163Z,9.97
2018-08-30T12:57:58.100Z,11.27
2018-08-30T13:00:26.828Z,11.33
2018-08-30T13:02:57.501Z,10.00
2018-08-30T13:05:26.277Z,10.73
2018-08-30T13:07:54.892Z,11.23
2018-08-30T13:10:24.623Z,10.43
2018-08-30T13:12:53.490Z,9.70
2018-08-30T13:15:22.144Z,10.00
2018-08-30T13:17:50.774Z,10.30
2018-08-30T13:20:19.374Z,11.80
2018-08-30T13:22:49.913Z,9.30
2018-08-30T13:25:19.481Z,9.60
2018-08-30T13:27:48.250Z,10.13
2018-08-30T13:30:20.353Z,6.87
2018-08-30T13:32:48.948Z,5.70
2018-08-30T13:35:17.569Z,5.00
2018-08-30T13:37:47.085Z,4.30
2018-08-30T13:40:15.534Z,4.43
2018-08-30T13:42:50.185Z,3.90
2018-08-30T13:45:18.866Z,5.00
2018-08-30T13:47:47.416Z,4.43
2018-08-30T13:50:18.301Z,4.57
2018-08-30T13:52:47.278Z,5.00
2018-08-30T13:55:15.871Z,5.37
2018-08-30T13:57:46.624Z,5.30
2018-08-30T14:00:16.410Z,5.87
2018-08-30T14:02:45.387Z,5.10
2018-08-30T14:05:14.898Z,5.77
2018-08-30T14:08:00.301Z,5.77
2018-08-30T14:10:31.413Z,6.80
2018-08-30T14:13:03.971Z,6.60
2018-08-30T14:15:32.368Z,7.17
2018-08-30T14:18:00.793Z,7.43
2018-08-30T14:20:29.346Z,7.17
2018-08-30T14:22:58.997Z,7.90
2018-08-30T14:25:27.546Z,7.47
2018-08-30T14:27:56.638Z,7.37
2018-08-30T14:30:25.593Z,8.30
2018-08-30T14:32:55.519Z,8.07
2018-08-30T14:36:27.625Z,8.90
2018-08-30T14:38:59.074Z,9.37
2018-08-30T14:41:29.856Z,10.40
2018-08-30T14:43:58.366Z,12.30
2018-08-30T14:46:28.163Z,11.70
2018-08-30T14:48:59.742Z,10.03
2018-08-30T14:51:29.527Z,11.07
2018-08-30T14:53:59.521Z,10.63
2018-08-30T14:56:30.398Z,10.00
2018-08-30T14:59:00.755Z,10.63
2018-08-30T15:01:31.247Z,11.00
2018-08-30T15:04:00.964Z,11.10
2018-08-30T15:06:33.207Z,9.97
2018-08-30T15:09:09.394Z,8.57
2018-08-30T15:11:49.777Z,9.57
2018-08-30T15:14:32.255Z,10.93
2018-08-30T15:17:07.658Z,10.23
2018-08-30T15:19:36.349Z,10.30
2018-08-30T15:22:05.111Z,10.40
2018-08-30T15:24:34.725Z,10.40
2018-08-30T15:27:04.655Z,10.50
2018-08-30T15:29:35.068Z,9.57
2018-08-30T15:32:05.472Z,10.20
2018-08-30T15:34:34.739Z,10.83
2018-08-30T15:37:04.860Z,10.20
2018-08-30T15:39:33.650Z,10.80
2018-08-30T15:42:08.297Z,8.93
2018-08-30T15:44:39.447Z,11.00
2018-08-30T15:47:18.582Z,11.13
2018-08-30T15:49:59.186Z,10.60
2018-08-30T15:52:29.297Z,11.10
2018-08-30T15:54:59.134Z,12.00
2018-08-30T15:57:44.901Z,12.20
2018-08-30T16:00:39.590Z,12.13
2018-08-30T16:06:07.426Z,11.40
2018-08-30T16:08:37.284Z,15.60
2018-08-30T16:11:07.136Z,15.10
2018-08-30T16:13:36.605Z,14.40
2018-08-30T16:16:05.587Z,12.90
2018-08-30T16:18:47.257Z,13.60
2018-08-30T16:21:21.325Z,12.47
2018-08-30T16:23:53.273Z,12.60
2018-08-30T16:29:20.134Z,11.73
2018-08-30T16:32:00.251Z,11.27
2018-08-30T16:34:41.101Z,12.07
2018-08-30T16:37:14.840Z,11.17
2018-08-30T16:39:50.385Z,11.80
2018-08-30T16:42:33.508Z,11.60
2018-08-30T16:45:05.667Z,11.87
2018-08-30T16:47:36.998Z,12.03
2018-08-30T16:50:11.865Z,11.87
2018-08-30T16:52:47.832Z,9.83
2018-08-30T16:55:26.100Z,13.00
2018-08-30T16:58:01.749Z,10.90
2018-08-30T17:00:37.553Z,17.13
2018-08-30T17:03:15.627Z,11.70
2018-08-30T17:05:57.327Z,11.63
2018-08-30T17:08:41.554Z,12.17
2018-08-30T17:11:15.693Z,10.00
2018-08-30T17:14:01.577Z,15.70
2018-08-30T17:16:39.583Z,11.73
2018-08-30T17:19:23.047Z,10.60
2018-08-30T17:21:58.450Z,11.73
2018-08-30T17:24:48.969Z,10.03
2018-08-30T17:27:23.817Z,13.20
2018-08-30T17:29:59.294Z,11.97
2018-08-30T17:32:32.151Z,12.80
2018-08-30T17:35:09.232Z,12.13
2018-08-30T17:37:38.697Z,11.53
2018-08-30T17:40:18.181Z,11.30
2018-08-30T17:42:48.407Z,13.80
2018-08-30T17:45:18.674Z,12.57
2018-08-30T17:47:49.182Z,12.83
2018-08-30T17:50:23.260Z,14.53
2018-08-30T17:52:54.196Z,15.77
2018-08-30T17:55:23.407Z,12.93
2018-08-30T17:57:54.242Z,12.87
2018-08-30T18:00:24.493Z,14.57
2018-08-30T18:05:46.300Z,14.10
2018-08-30T18:08:19.191Z,15.70
2018-08-30T18:10:54.407Z,12.80
2018-08-30T18:13:24.367Z,14.40
2018-08-30T18:15:53.051Z,16.17
2018-08-30T18:18:21.822Z,14.33
2018-08-30T18:20:50.465Z,13.53
2018-08-30T18:23:19.111Z,16.50
2018-08-30T18:25:47.884Z,13.60
2018-08-30T18:28:16.639Z,13.90
2018-08-30T18:30:47.518Z,16.63
2018-08-30T18:33:16.545Z,13.03
2018-08-30T18:35:49.084Z,18.43
2018-08-30T18:38:32.900Z,18.27
2018-08-30T18:44:44.527Z,15.83
2018-08-30T18:47:14.496Z,14.73
2018-08-30T18:49:43.392Z,18.60
2018-08-30T18:52:13.120Z,17.20
2018-08-30T18:54:42.124Z,19.47
2018-08-30T18:57:10.765Z,15.87
2018-08-30T18:59:40.191Z,17.20
2018-08-30T19:02:08.833Z,18.80
2018-08-30T19:04:37.592Z,16.27
2018-08-30T19:07:09.345Z,15.63
2018-08-30T19:09:38.091Z,15.40
2018-08-30T19:12:06.828Z,16.07
2018-08-30T19:14:38.228Z,15.63
2018-08-30T19:17:29.767Z,13.50
2018-08-30T19:19:58.588Z,11.80
2018-08-30T19:22:27.716Z,11.17
2018-08-30T19:25:02.581Z,12.57
2018-08-30T19:27:31.884Z,11.57
2018-08-30T19:30:06.917Z,10.70
2018-08-30T19:32:36.263Z,10.73
2018-08-30T19:35:10.969Z,10.60
2018-08-30T19:37:40.114Z,10.97
2018-08-30T19:40:13.469Z,9.40
2018-08-30T19:42:42.860Z,8.93
2018-08-30T19:45:12.037Z,8.57
2018-08-30T19:47:40.756Z,8.53
2018-08-30T19:50:09.432Z,10.20
2018-08-30T19:52:38.106Z,10.63
2018-08-30T19:55:07.447Z,9.50
2018-08-30T19:57:36.987Z,10.90
2018-08-30T20:00:07.007Z,11.43
2018-08-30T20:02:37.383Z,10.50
2018-08-30T20:05:07.842Z,12.93
2018-08-30T20:07:43.246Z,14.00
2018-08-30T20:10:13.364Z,14.23
2018-08-30T20:12:42.733Z,14.07
2018-08-30T20:15:12.617Z,12.27
2018-08-30T20:17:41.209Z,15.13
2018-08-30T20:20:09.957Z,13.20
2018-08-30T20:22:38.706Z,13.80
2018-08-30T20:25:07.640Z,14.87
2018-08-30T20:27:37.010Z,11.13
2018-08-30T20:30:05.849Z,12.10
2018-08-30T20:32:35.162Z,11.13
2018-08-30T20:35:05.012Z,11.57
2018-08-30T20:37:36.551Z,11.47
2018-08-30T20:40:06.436Z,11.80
2018-08-30T20:42:35.658Z,12.13
2018-08-30T20:45:06.848Z,11.57
2018-08-30T20:47:36.055Z,10.50
2018-08-30T20:50:05.417Z,11.40
2018-08-30T20:52:35.541Z,10.97
2018-08-30T20:55:04.262Z,10.83
2018-08-30T20:57:32.893Z,11.83
2018-08-30T21:00:01.511Z,9.00
2018-08-30T21:02:30.088Z,11.70
2018-08-30T21:04:58.669Z,11.10
2018-08-30T21:07:27.285Z,9.33
2018-08-30T21:09:55.775Z,14.00
2018-08-30T21:12:24.363Z,8.07
2018-08-30T21:14:52.954Z,9.33
2018-08-30T21:17:21.494Z,12.27
2018-08-30T21:19:49.997Z,9.93
2018-08-30T21:22:18.547Z,8.73
2018-08-30T21:24:47.158Z,9.80
2018-08-30T21:27:16.011Z,8.93
2018-08-30T21:29:44.636Z,9.47
2018-08-30T21:32:13.138Z,7.20
2018-08-30T21:34:41.754Z,8.03
2018-08-30T21:37:10.378Z,7.30
2018-08-30T21:39:39.094Z,8.40
2018-08-30T21:42:10.089Z,7.03
2018-08-30T21:44:40.506Z,9.30
2018-08-30T21:47:11.008Z,10.07
2018-08-30T21:49:47.405Z,7.93
2018-08-30T21:52:17.102Z,9.00
2018-08-30T21:54:46.688Z,10.20
2018-08-30T21:57:15.515Z,9.27
2018-08-30T21:59:44.067Z,7.67
2018-08-30T22:02:12.666Z,8.93
2018-08-30T22:04:42.035Z,9.47
2018-08-30T22:07:11.126Z,9.60
2018-08-30T22:09:40.211Z,9.73
2018-08-30T22:12:09.725Z,8.53
2018-08-30T22:14:38.814Z,9.90
2018-08-30T22:17:07.667Z,9.30
2018-08-30T22:19:36.416Z,8.90
2018-08-30T22:22:05.581Z,8.23
2018-08-30T22:24:35.025Z,12.97
2018-08-30T22:27:04.177Z,8.30
2018-08-30T22:29:33.437Z,9.60
2018-08-30T22:32:01.941Z,10.37
2018-08-30T22:34:30.460Z,10.00
2018-08-30T22:36:59.350Z,11.13
2018-08-30T22:39:28.246Z,11.27
2018-08-30T22:41:56.722Z,10.30
2018-08-30T22:44:25.289Z,8.57
2018-08-30T22:46:54.181Z,9.57
2018-08-30T22:49:22.768Z,11.57
2018-08-30T22:51:52.337Z,11.80
2018-08-30T22:54:21.713Z,10.60
2018-08-30T22:56:51.434Z,10.77
2018-08-30T22:59:21.023Z,9.17
2018-08-30T23:01:50.179Z,10.53
2018-08-30T23:04:19.502Z,11.03
2018-08-30T23:06:49.144Z,10.47
2018-08-30T23:09:17.993Z,9.97
2018-08-30T23:11:46.917Z,10.00
2018-08-30T23:14:16.324Z,9.67
2018-08-30T23:16:53.179Z,8.67
2018-08-30T23:19:23.252Z,11.60
2018-08-30T23:21:52.850Z,13.17
2018-08-30T23:24:22.007Z,10.13
2018-08-30T23:26:51.355Z,11.97
2018-08-30T23:29:19.846Z,10.90
2018-08-30T23:31:49.111Z,8.77
2018-08-30T23:34:18.575Z,9.70
2018-08-30T23:36:47.640Z,9.03
2018-08-30T23:39:16.717Z,12.70
2018-08-30T23:41:45.767Z,8.83
2018-08-30T23:44:14.431Z,10.07
2018-08-30T23:46:42.921Z,11.20
2018-08-30T23:49:11.384Z,9.23
2018-08-30T23:51:39.886Z,10.03
2018-08-30T23:54:08.424Z,11.17
2018-08-30T23:56:39.883Z,12.27
2018-08-30T23:59:20.046Z,8.73
